Time;durP1;ratioP1;P1;durP2;ratioP2;P2;SDS_P1;SDS_P2;PMS_P1;PMS_P2;Temp;Humidity;BMP_temperature;BMP_pressure;BME280_temperature;BME280_humidity;BME280_pressure;Samples;Min_cycle;Max_cycle;Signal;HPM_P1;HPM_P2
2023/07/08 00:00:29;;;;;;;7.20;4.60;;;;;;;;;;5032971;28;20466;-70
2023/07/08 00:02:55;;;;;;;7.03;4.53;;;;;;;;;;5033170;28;20797;-70
2023/07/08 00:05:22;;;;;;;7.37;3.97;;;;;;;;;;5033791;28;20420;-70
2023/07/08 00:07:48;;;;;;;8.00;4.80;;;;;;;;;;5033398;28;20980;-70
2023/07/08 00:10:22;;;;;;;13.03;4.70;;;;;;;;;;5032838;28;20411;-70
2023/07/08 00:12:49;;;;;;;7.40;4.20;;;;;;;;;;5033323;28;20419;-70
2023/07/08 00:15:16;;;;;;;12.27;4.13;;;;;;;;;;5033644;28;20894;-70
2023/07/08 00:17:42;;;;;;;15.90;5.33;;;;;;;;;;5032463;28;20463;-70
2023/07/08 00:20:13;;;;;;;19.47;4.70;;;;;;;;;;5033609;28;20457;-70
2023/07/08 00:22:40;;;;;;;4.47;4.17;;;;;;;;;;5033367;28;20428;-70
2023/07/08 00:25:07;;;;;;;5.07;4.50;;;;;;;;;;5033206;28;20423;-70
2023/07/08 00:27:33;;;;;;;4.63;4.20;;;;;;;;;;5032828;28;21020;-70
2023/07/08 00:30:00;;;;;;;4.73;3.77;;;;;;;;;;5033588;28;20447;-70
2023/07/08 00:32:26;;;;;;;18.53;5.63;;;;;;;;;;5032671;28;20465;-70
2023/07/08 00:34:52;;;;;;;6.50;4.20;;;;;;;;;;5028487;28;20896;-70
2023/07/08 00:37:18;;;;;;;7.77;4.97;;;;;;;;;;5013652;28;20519;-70
2023/07/08 00:39:44;;;;;;;4.93;4.33;;;;;;;;;;5013362;28;20928;-70
2023/07/08 00:42:14;;;;;;;5.20;3.90;;;;;;;;;;5017921;28;20686;-70
2023/07/08 00:44:40;;;;;;;5.43;4.87;;;;;;;;;;5032592;28;20431;-70
2023/07/08 00:47:09;;;;;;;6.70;4.10;;;;;;;;;;5032330;28;20430;-70
2023/07/08 00:49:38;;;;;;;9.43;5.80;;;;;;;;;;5027862;28;20475;-70
2023/07/08 00:52:23;;;;;;;6.77;4.37;;;;;;;;;;5014241;28;20427;-70
2023/07/08 00:54:50;;;;;;;4.90;3.67;;;;;;;;;;5025973;28;20438;-70
2023/07/08 00:57:16;;;;;;;6.13;4.70;;;;;;;;;;5048320;28;20477;-70
2023/07/08 00:59:44;;;;;;;4.97;4.57;;;;;;;;;;5032939;28;20964;-70
2023/07/08 01:02:13;;;;;;;6.50;3.90;;;;;;;;;;5032419;28;20483;-70
2023/07/08 01:04:45;;;;;;;5.10;4.37;;;;;;;;;;5031743;28;20431;-70
2023/07/08 01:07:11;;;;;;;5.27;4.80;;;;;;;;;;5032241;28;20526;-70
2023/07/08 01:09:42;;;;;;;9.00;4.80;;;;;;;;;;5032625;28;20926;-70
2023/07/08 01:12:11;;;;;;;8.20;4.60;;;;;;;;;;5031542;28;20784;-70
2023/07/08 01:14:37;;;;;;;6.90;5.17;;;;;;;;;;5031448;28;20953;-70
2023/07/08 01:17:03;;;;;;;4.87;4.07;;;;;;;;;;5032584;28;20415;-71
2023/07/08 01:19:34;;;;;;;5.83;4.57;;;;;;;;;;5032474;28;20471;-70
2023/07/08 01:21:59;;;;;;;7.07;4.10;;;;;;;;;;5035074;28;20483;-70
2023/07/08 01:24:26;;;;;;;7.67;4.60;;;;;;;;;;5035225;28;20424;-70
2023/07/08 01:26:52;;;;;;;5.90;4.30;;;;;;;;;;5036907;28;20204;-70
2023/07/08 01:29:18;;;;;;;6.67;4.13;;;;;;;;;;5035902;28;20542;-70
2023/07/08 01:31:48;;;;;;;5.13;4.63;;;;;;;;;;5036447;28;20455;-70
2023/07/08 01:34:15;;;;;;;4.83;4.00;;;;;;;;;;5035220;28;20441;-70
2023/07/08 01:36:42;;;;;;;6.07;4.83;;;;;;;;;;5036644;28;20493;-70
2023/07/08 01:39:12;;;;;;;8.40;4.63;;;;;;;;;;5036646;28;20415;-70
2023/07/08 01:41:38;;;;;;;10.93;4.10;;;;;;;;;;5036490;28;20475;-70
2023/07/08 01:44:04;;;;;;;4.33;4.00;;;;;;;;;;5035096;28;20518;-69
2023/07/08 01:46:31;;;;;;;11.57;4.37;;;;;;;;;;5036121;28;20423;-71
2023/07/08 01:48:59;;;;;;;5.03;4.33;;;;;;;;;;5036376;28;20549;-71
2023/07/08 01:51:26;;;;;;;5.60;3.70;;;;;;;;;;5036432;28;20427;-74
2023/07/08 01:53:52;;;;;;;13.57;4.20;;;;;;;;;;5035959;28;20423;-68
2023/07/08 01:56:18;;;;;;;6.90;4.80;;;;;;;;;;5036285;28;20414;-71
2023/07/08 01:58:44;;;;;;;15.53;4.73;;;;;;;;;;5035961;28;20435;-70
2023/07/08 02:01:10;;;;;;;4.80;4.00;;;;;;;;;;5035737;28;20486;-67
2023/07/08 02:03:36;;;;;;;11.47;3.63;;;;;;;;;;5035354;28;20462;-69
2023/07/08 02:06:03;;;;;;;5.60;3.83;;;;;;;;;;5036112;28;20418;-70
2023/07/08 02:08:28;;;;;;;4.37;3.50;;;;;;;;;;5035154;28;20431;-70
2023/07/08 02:10:58;;;;;;;4.03;3.73;;;;;;;;;;5035671;28;20435;-69
2023/07/08 02:13:25;;;;;;;6.47;4.47;;;;;;;;;;5035673;28;20407;-70
2023/07/08 02:15:51;;;;;;;4.70;4.03;;;;;;;;;;5035246;28;20434;-72
2023/07/08 02:18:18;;;;;;;6.90;4.70;;;;;;;;;;5035975;28;20416;-74
2023/07/08 02:20:44;;;;;;;8.13;4.50;;;;;;;;;;5035071;28;20823;-72
2023/07/08 02:23:10;;;;;;;4.13;3.73;;;;;;;;;;5035247;28;20450;-72
2023/07/08 02:25:36;;;;;;;11.37;4.60;;;;;;;;;;5035825;28;20415;-71
2023/07/08 02:28:03;;;;;;;4.97;4.60;;;;;;;;;;5035666;28;20506;-72
2023/07/08 02:30:29;;;;;;;4.97;4.53;;;;;;;;;;5034930;28;20801;-70
2023/07/08 02:32:58;;;;;;;4.70;4.20;;;;;;;;;;5034010;28;20423;-74
2023/07/08 02:35:25;;;;;;;6.00;4.80;;;;;;;;;;5034834;28;20185;-70
2023/07/08 02:37:52;;;;;;;5.27;4.87;;;;;;;;;;5035149;28;20463;-70
2023/07/08 02:40:18;;;;;;;7.57;5.10;;;;;;;;;;5035421;28;20922;-72
2023/07/08 02:42:44;;;;;;;5.13;4.67;;;;;;;;;;5034991;28;20510;-71
2023/07/08 02:45:10;;;;;;;12.50;4.67;;;;;;;;;;5034739;28;20482;-70
2023/07/08 02:47:36;;;;;;;5.10;4.70;;;;;;;;;;5035048;28;20498;-67
2023/07/08 02:50:02;;;;;;;10.97;5.77;;;;;;;;;;5034731;28;20897;-66
2023/07/08 02:52:28;;;;;;;13.67;4.83;;;;;;;;;;5035310;28;20411;-70
2023/07/08 02:54:54;;;;;;;5.77;4.60;;;;;;;;;;5034868;28;20557;-70
2023/07/08 02:57:20;;;;;;;11.03;4.50;;;;;;;;;;5034749;28;20439;-69
2023/07/08 02:59:46;;;;;;;7.77;4.70;;;;;;;;;;5034854;28;20477;-67
2023/07/08 03:02:12;;;;;;;5.00;4.60;;;;;;;;;;5034526;28;20475;-70
2023/07/08 03:04:39;;;;;;;4.93;4.17;;;;;;;;;;5034645;28;20424;-70
2023/07/08 03:07:05;;;;;;;13.93;4.90;;;;;;;;;;5034660;28;20924;-75
2023/07/08 03:09:32;;;;;;;12.93;4.60;;;;;;;;;;5049769;28;20471;-70
2023/07/08 03:11:58;;;;;;;5.50;4.57;;;;;;;;;;5034975;28;20424;-71
2023/07/08 03:14:24;;;;;;;10.10;4.90;;;;;;;;;;5034513;28;20419;-70
2023/07/08 03:16:50;;;;;;;12.43;5.27;;;;;;;;;;5034295;28;20423;-72
2023/07/08 03:19:17;;;;;;;6.40;4.37;;;;;;;;;;5034056;28;20785;-72
2023/07/08 03:21:43;;;;;;;5.20;4.67;;;;;;;;;;5033970;28;20629;-71
2023/07/08 03:24:12;;;;;;;11.60;5.13;;;;;;;;;;5034388;28;20643;-74
2023/07/08 03:26:38;;;;;;;4.80;4.30;;;;;;;;;;5034614;28;20514;-71
2023/07/08 03:29:04;;;;;;;4.77;4.37;;;;;;;;;;5034162;28;20923;-70
2023/07/08 03:31:30;;;;;;;8.30;4.80;;;;;;;;;;5033035;28;20462;-69
2023/07/08 03:33:56;;;;;;;4.67;4.27;;;;;;;;;;5034226;28;20415;-73
2023/07/08 03:36:22;;;;;;;10.27;4.70;;;;;;;;;;5034405;28;20950;-71
2023/07/08 03:38:52;;;;;;;4.90;4.40;;;;;;;;;;5033250;28;20443;-72
2023/07/08 03:41:18;;;;;;;4.80;4.10;;;;;;;;;;5034177;28;20474;-69
2023/07/08 03:43:44;;;;;;;3.93;3.53;;;;;;;;;;5032411;28;20450;-70
2023/07/08 03:46:11;;;;;;;5.33;3.20;;;;;;;;;;5035277;28;20439;-69
2023/07/08 03:48:37;;;;;;;8.23;3.47;;;;;;;;;;5039663;28;20473;-69
2023/07/08 03:51:03;;;;;;;3.43;3.23;;;;;;;;;;5054002;28;20425;-69
2023/07/08 03:53:29;;;;;;;5.53;3.30;;;;;;;;;;5053435;28;20480;-68
2023/07/08 03:55:55;;;;;;;7.33;3.60;;;;;;;;;;5044242;28;20467;-67
2023/07/08 03:58:21;;;;;;;8.87;3.50;;;;;;;;;;5032244;28;20798;-67
2023/07/08 04:00:47;;;;;;;3.77;3.37;;;;;;;;;;5038834;28;20557;-67
2023/07/08 04:03:13;;;;;;;12.63;4.27;;;;;;;;;;5027996;28;20435;-66
2023/07/08 04:05:39;;;;;;;3.63;3.17;;;;;;;;;;5033142;28;20422;-67
2023/07/08 04:08:05;;;;;;;6.30;4.07;;;;;;;;;;5017232;28;20451;-68
2023/07/08 04:10:31;;;;;;;4.57;3.87;;;;;;;;;;5018543;28;20494;-67
2023/07/08 04:12:57;;;;;;;4.33;2.87;;;;;;;;;;5051124;28;20476;-69
2023/07/08 04:15:25;;;;;;;3.30;3.10;;;;;;;;;;5026324;28;20440;-68
2023/07/08 04:17:53;;;;;;;4.07;2.70;;;;;;;;;;5012644;28;20868;-73
2023/07/08 04:20:19;;;;;;;6.90;4.10;;;;;;;;;;5023250;28;20426;-66
2023/07/08 04:22:46;;;;;;;6.70;3.00;;;;;;;;;;5042706;28;20445;-66
2023/07/08 04:25:13;;;;;;;5.93;3.50;;;;;;;;;;5033652;28;20439;-66
2023/07/08 04:27:40;;;;;;;16.47;3.77;;;;;;;;;;5033091;28;20486;-67
2023/07/08 04:30:06;;;;;;;4.03;3.63;;;;;;;;;;5033163;28;20451;-66
2023/07/08 04:32:32;;;;;;;7.73;4.20;;;;;;;;;;5034190;28;20432;-66
2023/07/08 04:34:58;;;;;;;4.57;3.63;;;;;;;;;;5032396;28;20454;-66
2023/07/08 04:37:25;;;;;;;4.80;3.50;;;;;;;;;;5032732;28;20450;-66
2023/07/08 04:39:51;;;;;;;3.57;3.27;;;;;;;;;;5033155;28;20923;-66
2023/07/08 04:42:17;;;;;;;4.40;3.27;;;;;;;;;;5031474;28;20482;-66
2023/07/08 04:44:43;;;;;;;4.50;3.63;;;;;;;;;;5032064;28;20486;-66
2023/07/08 04:47:13;;;;;;;6.50;4.50;;;;;;;;;;5039348;28;20955;-66
2023/07/08 04:49:40;;;;;;;5.03;3.67;;;;;;;;;;5032933;28;20538;-69
2023/07/08 04:52:06;;;;;;;10.57;4.33;;;;;;;;;;5032975;28;20915;-66
2023/07/08 04:54:32;;;;;;;3.63;3.10;;;;;;;;;;5032716;28;20494;-65
2023/07/08 04:56:58;;;;;;;5.07;3.17;;;;;;;;;;5037586;28;20538;-65
2023/07/08 04:59:25;;;;;;;3.20;3.00;;;;;;;;;;5031853;28;21064;-65
2023/07/08 05:01:52;;;;;;;3.50;3.13;;;;;;;;;;5032347;28;20490;-65
2023/07/08 05:04:19;;;;;;;9.23;3.27;;;;;;;;;;5034143;28;20469;-65
2023/07/08 05:06:45;;;;;;;3.77;2.90;;;;;;;;;;5030875;28;20481;-64
2023/07/08 05:09:11;;;;;;;4.07;3.17;;;;;;;;;;5031982;28;20431;-64
2023/07/08 05:11:37;;;;;;;6.37;3.40;;;;;;;;;;5035173;28;20842;-65
2023/07/08 05:14:03;;;;;;;4.23;2.90;;;;;;;;;;5033102;28;20441;-64
2023/07/08 05:16:30;;;;;;;3.13;2.30;;;;;;;;;;5045944;28;20495;-64
2023/07/08 05:18:56;;;;;;;6.80;2.80;;;;;;;;;;5052007;28;20407;-64
2023/07/08 05:21:22;;;;;;;3.17;2.20;;;;;;;;;;5047120;28;20514;-64
2023/07/08 05:23:51;;;;;;;2.67;2.20;;;;;;;;;;5042408;28;20473;-65
2023/07/08 05:26:17;;;;;;;4.07;2.53;;;;;;;;;;5027578;28;20439;-64
2023/07/08 05:28:43;;;;;;;2.70;1.70;;;;;;;;;;5034773;28;20453;-64
2023/07/08 05:31:09;;;;;;;2.23;2.13;;;;;;;;;;5031083;28;20435;-64
2023/07/08 05:33:36;;;;;;;1.43;1.43;;;;;;;;;;5031104;28;20427;-65
2023/07/08 05:36:02;;;;;;;2.80;2.40;;;;;;;;;;5031848;28;20420;-65
2023/07/08 05:38:28;;;;;;;7.93;2.93;;;;;;;;;;5031430;28;20450;-65
2023/07/08 05:40:55;;;;;;;2.70;2.50;;;;;;;;;;5047624;28;20619;-65
2023/07/08 05:43:21;;;;;;;3.93;1.93;;;;;;;;;;5049270;28;20450;-65
2023/07/08 05:45:47;;;;;;;1.40;1.40;;;;;;;;;;5040995;28;20506;-65
2023/07/08 05:48:13;;;;;;;2.40;1.60;;;;;;;;;;5030315;28;20431;-64
2023/07/08 05:50:40;;;;;;;1.47;1.47;;;;;;;;;;5029625;28;20455;-65
2023/07/08 05:53:06;;;;;;;2.57;2.00;;;;;;;;;;5036373;28;20541;-64
2023/07/08 05:55:32;;;;;;;1.63;1.53;;;;;;;;;;5050652;28;20498;-65
2023/07/08 05:57:58;;;;;;;1.73;1.63;;;;;;;;;;5049936;28;20445;-64
2023/07/08 06:00:24;;;;;;;3.23;2.10;;;;;;;;;;5036404;28;20792;-64
2023/07/08 06:02:50;;;;;;;1.23;1.13;;;;;;;;;;5030092;28;20439;-65
2023/07/08 06:05:16;;;;;;;1.50;1.40;;;;;;;;;;5030988;28;20442;-65
2023/07/08 06:07:42;;;;;;;6.30;1.30;;;;;;;;;;5033711;28;20458;-65
2023/07/08 06:10:08;;;;;;;4.93;1.77;;;;;;;;;;5041336;28;20451;-65
2023/07/08 06:12:34;;;;;;;1.20;1.10;;;;;;;;;;5034897;28;20415;-65
2023/07/08 06:15:00;;;;;;;2.33;1.40;;;;;;;;;;5034918;28;20416;-64
2023/07/08 06:17:26;;;;;;;1.40;1.40;;;;;;;;;;5034872;28;20431;-64
2023/07/08 06:19:52;;;;;;;1.93;1.70;;;;;;;;;;5049247;28;20450;-64
2023/07/08 06:22:19;;;;;;;2.37;1.63;;;;;;;;;;5034808;28;20921;-65
2023/07/08 06:24:45;;;;;;;2.00;1.57;;;;;;;;;;5033037;28;20434;-65
2023/07/08 06:27:11;;;;;;;1.90;1.80;;;;;;;;;;5049219;28;20841;-65
2023/07/08 06:29:37;;;;;;;3.27;1.80;;;;;;;;;;5047829;28;20431;-65
2023/07/08 06:32:03;;;;;;;2.10;2.00;;;;;;;;;;5034815;28;20434;-65
2023/07/08 06:34:29;;;;;;;1.73;1.70;;;;;;;;;;5034987;28;20423;-65
2023/07/08 06:36:55;;;;;;;8.45;1.70;;;;;;;;;;5034896;28;20843;-65
2023/07/08 06:39:21;;;;;;;5.70;1.70;;;;;;;;;;5041748;28;20468;-64
2023/07/08 06:41:47;;;;;;;2.47;1.77;;;;;;;;;;5051992;28;20224;-65
2023/07/08 06:44:13;;;;;;;1.83;1.73;;;;;;;;;;5047544;28;20442;-65
2023/07/08 06:46:39;;;;;;;1.37;1.37;;;;;;;;;;5042105;28;20435;-65
2023/07/08 06:49:09;;;;;;;1.20;1.10;;;;;;;;;;5034703;28;20478;-62
2023/07/08 06:51:35;;;;;;;1.33;1.33;;;;;;;;;;5051611;28;20860;-62
2023/07/08 06:54:10;;;;;;;1.10;1.10;;;;;;;;;;5039000;28;20434;-62
2023/07/08 06:56:37;;;;;;;1.73;1.07;;;;;;;;;;5036901;28;20521;-62
2023/07/08 06:59:03;;;;;;;4.83;1.60;;;;;;;;;;5038701;28;20547;-62
2023/07/08 07:01:29;;;;;;;5.17;1.80;;;;;;;;;;5035939;28;20973;-62
2023/07/08 07:03:55;;;;;;;1.40;1.40;;;;;;;;;;5033948;28;20458;-62
2023/07/08 07:06:21;;;;;;;2.37;2.27;;;;;;;;;;5034632;28;20446;-63
2023/07/08 07:08:47;;;;;;;1.47;1.37;;;;;;;;;;5036900;28;20438;-65
2023/07/08 07:11:13;;;;;;;3.70;2.37;;;;;;;;;;5038334;28;20799;-63
2023/07/08 07:13:39;;;;;;;2.70;2.60;;;;;;;;;;5033716;28;20427;-64
2023/07/08 07:16:05;;;;;;;1.70;1.70;;;;;;;;;;5036189;28;20453;-63
2023/07/08 07:18:31;;;;;;;5.67;2.80;;;;;;;;;;5037765;28;20506;-63
2023/07/08 07:20:59;;;;;;;3.90;2.60;;;;;;;;;;5048499;28;21119;-63
2023/07/08 07:23:25;;;;;;;2.87;2.77;;;;;;;;;;5034074;28;20451;-63
2023/07/08 07:25:51;;;;;;;4.13;3.17;;;;;;;;;;5034082;28;20427;-63
2023/07/08 07:28:17;;;;;;;5.60;3.10;;;;;;;;;;5034072;28;20479;-62
2023/07/08 07:30:44;;;;;;;4.70;2.87;;;;;;;;;;5033648;28;20427;-62
2023/07/08 07:33:10;;;;;;;5.50;2.87;;;;;;;;;;5033961;28;20431;-63
2023/07/08 07:35:36;;;;;;;4.60;2.67;;;;;;;;;;5038874;28;20466;-62
2023/07/08 07:38:02;;;;;;;7.77;3.07;;;;;;;;;;5043259;28;20883;-63
2023/07/08 07:40:28;;;;;;;4.13;3.67;;;;;;;;;;5037800;28;20446;-63
2023/07/08 07:42:54;;;;;;;3.03;2.73;;;;;;;;;;5044420;28;20546;-62
2023/07/08 07:45:22;;;;;;;5.47;3.20;;;;;;;;;;5039487;28;20470;-70
2023/07/08 07:47:48;;;;;;;3.27;2.90;;;;;;;;;;5033665;28;20439;-70
2023/07/08 07:50:14;;;;;;;3.13;3.03;;;;;;;;;;5047200;28;20474;-70
2023/07/08 07:52:41;;;;;;;3.33;3.17;;;;;;;;;;5046308;28;20442;-70
2023/07/08 07:55:07;;;;;;;5.07;3.60;;;;;;;;;;5053938;28;20461;-70
2023/07/08 07:57:33;;;;;;;2.80;2.60;;;;;;;;;;5046720;28;20852;-70
2023/07/08 07:59:59;;;;;;;3.03;2.80;;;;;;;;;;5033147;28;20423;-70
2023/07/08 08:02:25;;;;;;;3.27;2.27;;;;;;;;;;5039118;28;20569;-70
2023/07/08 08:04:51;;;;;;;6.30;3.13;;;;;;;;;;5032026;28;21035;-69
2023/07/08 08:07:17;;;;;;;4.10;2.30;;;;;;;;;;5033697;28;20493;-70
2023/07/08 08:09:43;;;;;;;4.23;3.53;;;;;;;;;;5033043;28;20443;-70
2023/07/08 08:12:10;;;;;;;3.13;2.43;;;;;;;;;;5033428;28;20478;-67
2023/07/08 08:14:36;;;;;;;7.50;3.40;;;;;;;;;;5033467;28;20442;-70
2023/07/08 08:17:02;;;;;;;3.07;2.77;;;;;;;;;;5041441;28;21226;-70
2023/07/08 08:19:28;;;;;;;2.70;2.60;;;;;;;;;;5032647;28;20435;-69
2023/07/08 08:21:54;;;;;;;3.10;2.87;;;;;;;;;;5033096;28;21065;-70
2023/07/08 08:24:20;;;;;;;2.93;2.70;;;;;;;;;;5032961;28;20513;-70
2023/07/08 08:26:47;;;;;;;2.43;2.30;;;;;;;;;;5031735;28;20451;-71
2023/07/08 08:29:13;;;;;;;4.10;2.67;;;;;;;;;;5031658;28;20446;-71
2023/07/08 08:31:39;;;;;;;5.67;2.23;;;;;;;;;;5030857;28;20431;-70
2023/07/08 08:34:05;;;;;;;3.23;3.10;;;;;;;;;;5031744;28;20414;-71
2023/07/08 08:36:30;;;;;;;1.60;1.60;;;;;;;;;;5035468;28;20467;-70
2023/07/08 08:38:57;;;;;;;4.10;2.27;;;;;;;;;;5040894;28;20429;-70
2023/07/08 08:41:34;;;;;;;8.40;2.43;;;;;;;;;;5030814;28;20475;-70
2023/07/08 08:44:01;;;;;;;1.70;1.70;;;;;;;;;;5033375;28;20473;-71
2023/07/08 08:46:50;;;;;;;2.80;2.27;;;;;;;;;;5033665;28;20449;-70
2023/07/08 08:49:19;;;;;;;6.27;2.27;;;;;;;;;;5032386;28;20505;-70
2023/07/08 08:51:45;;;;;;;2.73;2.30;;;;;;;;;;5027243;28;20462;-70
2023/07/08 08:54:11;;;;;;;2.27;2.07;;;;;;;;;;5029671;28;20888;-70
2023/07/08 08:56:46;;;;;;;3.87;2.23;;;;;;;;;;5031656;28;20513;-70
2023/07/08 08:59:21;;;;;;;2.53;2.33;;;;;;;;;;5043671;28;20429;-71
2023/07/08 09:01:47;;;;;;;3.37;3.10;;;;;;;;;;5031278;28;20497;-70
2023/07/08 09:04:20;;;;;;;3.77;3.47;;;;;;;;;;5031565;28;20478;-70
2023/07/08 09:06:46;;;;;;;3.17;2.67;;;;;;;;;;5031191;28;20435;-70
2023/07/08 09:09:30;;;;;;;2.43;2.43;;;;;;;;;;5029697;28;20430;-70
2023/07/08 09:12:03;;;;;;;2.30;2.20;;;;;;;;;;5031795;28;20502;-70
2023/07/08 09:14:29;;;;;;;5.93;2.10;;;;;;;;;;5031235;28;20418;-70
2023/07/08 09:16:59;;;;;;;2.37;2.27;;;;;;;;;;5031635;28;20419;-70
2023/07/08 09:19:33;;;;;;;6.63;2.93;;;;;;;;;;5031919;28;20423;-65
2023/07/08 09:22:03;;;;;;;1.70;1.70;;;;;;;;;;5032017;28;20833;-71
2023/07/08 09:24:41;;;;;;;2.27;2.17;;;;;;;;;;5032179;28;20426;-70
2023/07/08 09:27:07;;;;;;;3.57;1.80;;;;;;;;;;5026261;28;20435;-71
2023/07/08 09:29:34;;;;;;;1.93;1.83;;;;;;;;;;5047833;28;20991;-70
2023/07/08 09:32:01;;;;;;;2.60;2.40;;;;;;;;;;5032168;28;20523;-70
2023/07/08 09:34:45;;;;;;;11.10;1.77;;;;;;;;;;5031779;28;20510;-70
2023/07/08 09:37:20;;;;;;;7.30;3.20;;;;;;;;;;5031770;28;20431;-70
2023/07/08 09:39:46;;;;;;;2.50;2.40;;;;;;;;;;5038079;28;20406;-70
2023/07/08 09:42:14;;;;;;;8.77;3.67;;;;;;;;;;5053611;28;20840;-70
2023/07/08 09:44:40;;;;;;;3.97;2.50;;;;;;;;;;5058522;28;20430;-70
2023/07/08 09:47:17;;;;;;;3.50;2.90;;;;;;;;;;5046749;28;20474;-70
2023/07/08 09:49:44;;;;;;;6.90;1.90;;;;;;;;;;5035846;28;20481;-70
2023/07/08 09:52:12;;;;;;;1.80;1.77;;;;;;;;;;5035873;28;20431;-70
2023/07/08 09:54:41;;;;;;;1.73;1.73;;;;;;;;;;5035402;28;20423;-70
2023/07/08 09:57:19;;;;;;;2.77;2.43;;;;;;;;;;5035695;28;20501;-70
2023/07/08 09:59:49;;;;;;;2.60;2.47;;;;;;;;;;5035306;28;20817;-70
2023/07/08 10:02:21;;;;;;;2.17;2.00;;;;;;;;;;5034096;28;20467;-70
2023/07/08 10:04:47;;;;;;;2.57;2.47;;;;;;;;;;5035108;28;20494;-70
2023/07/08 10:07:17;;;;;;;2.40;2.27;;;;;;;;;;5035520;28;20557;-71
2023/07/08 10:09:43;;;;;;;6.13;2.03;;;;;;;;;;5035725;28;20447;-70
2023/07/08 10:12:13;;;;;;;2.40;2.20;;;;;;;;;;5050981;28;20509;-70
2023/07/08 10:14:48;;;;;;;2.93;2.77;;;;;;;;;;5034458;28;20435;-70
2023/07/08 10:17:15;;;;;;;2.30;2.30;;;;;;;;;;5035113;28;20430;-70
2023/07/08 10:19:41;;;;;;;2.07;1.97;;;;;;;;;;5034169;28;20426;-70
2023/07/08 10:22:16;;;;;;;5.93;1.63;;;;;;;;;;5034407;28;20974;-71
2023/07/08 10:25:01;;;;;;;4.10;2.27;;;;;;;;;;5033812;28;20434;-70
2023/07/08 10:27:30;;;;;;;3.43;3.07;;;;;;;;;;5035647;28;20415;-71
2023/07/08 10:29:59;;;;;;;3.07;1.40;;;;;;;;;;5035379;28;20433;-70
2023/07/08 10:32:44;;;;;;;1.80;1.80;;;;;;;;;;5033932;28;20528;-70
2023/07/08 10:35:17;;;;;;;1.77;1.77;;;;;;;;;;5035624;28;20434;-71
2023/07/08 10:37:56;;;;;;;3.50;3.40;;;;;;;;;;5035583;28;20911;-70
2023/07/08 10:40:31;;;;;;;2.47;1.63;;;;;;;;;;5035625;28;20426;-70
2023/07/08 10:43:16;;;;;;;1.47;1.37;;;;;;;;;;5034410;28;20441;-70
2023/07/08 10:45:45;;;;;;;5.87;1.80;;;;;;;;;;5034780;28;20435;-70
2023/07/08 10:48:30;;;;;;;1.93;1.83;;;;;;;;;;5037061;28;20995;-70
2023/07/08 10:51:02;;;;;;;2.00;1.90;;;;;;;;;;5055302;28;20422;-70
2023/07/08 10:53:44;;;;;;;2.00;1.97;;;;;;;;;;5052444;28;21030;-70
2023/07/08 10:56:22;;;;;;;6.20;2.43;;;;;;;;;;5049158;28;20564;-70
2023/07/08 10:59:07;;;;;;;1.50;1.40;;;;;;;;;;5034934;28;20438;-70
2023/07/08 11:01:45;;;;;;;1.30;1.20;;;;;;;;;;5019412;28;20557;-73
2023/07/08 11:04:24;;;;;;;2.00;1.90;;;;;;;;;;5054193;28;20457;-70
2023/07/08 11:06:50;;;;;;;2.00;1.90;;;;;;;;;;5053298;28;20462;-70
2023/07/08 11:09:19;;;;;;;1.57;1.50;;;;;;;;;;5052222;28;20502;-70
2023/07/08 11:11:51;;;;;;;6.00;2.07;;;;;;;;;;5033068;28;20523;-70
2023/07/08 11:14:21;;;;;;;10.27;2.50;;;;;;;;;;5044789;28;21105;-70
2023/07/08 11:17:00;;;;;;;1.83;1.80;;;;;;;;;;5035847;28;20435;-70
2023/07/08 11:19:31;;;;;;;1.90;1.80;;;;;;;;;;5024672;28;20455;-70
2023/07/08 11:21:59;;;;;;;4.70;2.07;;;;;;;;;;5047820;28;20477;-70
2023/07/08 11:24:29;;;;;;;1.40;1.40;;;;;;;;;;5039760;28;20431;-70
2023/07/08 11:26:56;;;;;;;5.57;3.90;;;;;;;;;;5035657;28;20442;-72
2023/07/08 11:29:24;;;;;;;1.77;1.70;;;;;;;;;;5052380;28;20438;-70
2023/07/08 11:31:50;;;;;;;1.80;1.70;;;;;;;;;;5042551;28;20491;-70
2023/07/08 11:34:18;;;;;;;2.50;1.60;;;;;;;;;;5033910;28;20737;-70
2023/07/08 11:36:44;;;;;;;1.40;1.40;;;;;;;;;;5034180;28;20486;-70
2023/07/08 11:39:43;;;;;;;1.60;1.60;;;;;;;;;;5034242;28;20518;-70
2023/07/08 11:42:19;;;;;;;2.83;1.53;;;;;;;;;;4990180;28;21017;-71
2023/07/08 11:44:52;;;;;;;1.70;1.60;;;;;;;;;;5033502;28;20445;-70
2023/07/08 11:47:20;;;;;;;3.23;2.00;;;;;;;;;;5016123;28;20839;-70
2023/07/08 11:49:48;;;;;;;1.70;1.60;;;;;;;;;;5033917;28;20891;-70
2023/07/08 11:52:17;;;;;;;2.23;2.20;;;;;;;;;;5033517;28;20794;-71
2023/07/08 11:54:47;;;;;;;2.20;2.10;;;;;;;;;;5046940;28;20437;-70
2023/07/08 11:57:33;;;;;;;1.77;1.77;;;;;;;;;;5044231;28;20431;-70
2023/07/08 12:00:12;;;;;;;1.80;1.80;;;;;;;;;;5025422;28;20418;-70
2023/07/08 12:02:48;;;;;;;2.30;2.17;;;;;;;;;;5033459;28;20478;-70
2023/07/08 12:05:14;;;;;;;2.37;2.20;;;;;;;;;;5033340;28;20411;-70
2023/07/08 12:07:48;;;;;;;2.40;2.03;;;;;;;;;;5033451;28;20503;-70
2023/07/08 12:10:19;;;;;;;1.80;1.63;;;;;;;;;;5033860;28;20408;-70
2023/07/08 12:12:45;;;;;;;6.53;2.23;;;;;;;;;;5033030;28;20430;-70
2023/07/08 12:15:32;;;;;;;2.60;2.43;;;;;;;;;;5033301;28;20944;-70
2023/07/08 12:18:21;;;;;;;2.00;1.90;;;;;;;;;;5017966;28;20420;-70
2023/07/08 12:20:50;;;;;;;2.70;1.97;;;;;;;;;;5008369;28;20459;-70
2023/07/08 12:23:18;;;;;;;1.93;1.93;;;;;;;;;;5029870;28;20431;-70
2023/07/08 12:25:44;;;;;;;1.80;1.70;;;;;;;;;;5033608;28;20415;-70
2023/07/08 12:28:14;;;;;;;2.40;2.30;;;;;;;;;;5033624;28;20458;-70
2023/07/08 12:30:41;;;;;;;2.03;1.93;;;;;;;;;;5033021;28;20486;-70
2023/07/08 12:33:15;;;;;;;2.60;1.63;;;;;;;;;;5032836;28;20439;-70
2023/07/08 12:35:42;;;;;;;4.80;2.13;;;;;;;;;;5033244;28;20426;-70
2023/07/08 12:38:17;;;;;;;1.50;1.50;;;;;;;;;;5033451;28;20435;-70
2023/07/08 12:40:44;;;;;;;4.70;2.17;;;;;;;;;;5033231;28;20419;-70
2023/07/08 12:43:10;;;;;;;2.00;1.97;;;;;;;;;;5032588;28;20427;-70
2023/07/08 12:45:37;;;;;;;2.33;2.03;;;;;;;;;;5032725;28;20427;-71
2023/07/08 12:48:03;;;;;;;4.63;1.90;;;;;;;;;;5033837;28;20455;-70
2023/07/08 12:50:29;;;;;;;2.47;2.37;;;;;;;;;;5052987;28;20446;-70
2023/07/08 12:52:56;;;;;;;3.03;1.70;;;;;;;;;;5051687;28;20422;-70
2023/07/08 12:55:23;;;;;;;1.77;1.77;;;;;;;;;;5053083;28;20418;-70
2023/07/08 12:57:51;;;;;;;1.83;1.67;;;;;;;;;;5052997;28;20755;-70
2023/07/08 13:00:28;;;;;;;4.77;1.97;;;;;;;;;;5051111;28;20522;-70
2023/07/08 13:03:14;;;;;;;4.50;2.10;;;;;;;;;;5052370;28;20556;-71
2023/07/08 13:05:41;;;;;;;3.83;2.40;;;;;;;;;;5052748;28;20426;-70
2023/07/08 13:08:09;;;;;;;7.03;1.90;;;;;;;;;;5030426;28;20948;-70
2023/07/08 13:10:35;;;;;;;2.37;2.27;;;;;;;;;;5030446;28;20430;-70
2023/07/08 13:13:03;;;;;;;1.80;1.80;;;;;;;;;;5027809;28;20941;-70
2023/07/08 13:15:33;;;;;;;2.10;1.93;;;;;;;;;;5025492;28;20911;-70
2023/07/08 13:17:59;;;;;;;6.90;2.00;;;;;;;;;;5031838;28;20431;-70
2023/07/08 13:20:25;;;;;;;10.20;2.83;;;;;;;;;;5032741;28;20447;-70
2023/07/08 13:22:56;;;;;;;3.13;1.73;;;;;;;;;;5031260;28;20575;-70
2023/07/08 13:25:28;;;;;;;2.67;1.80;;;;;;;;;;5045310;28;20818;-70
2023/07/08 13:28:01;;;;;;;4.03;2.20;;;;;;;;;;5032453;28;20474;-70
2023/07/08 13:30:29;;;;;;;2.77;2.23;;;;;;;;;;5031628;28;20430;-70
2023/07/08 13:32:55;;;;;;;3.27;2.10;;;;;;;;;;5029908;28;20439;-70
2023/07/08 13:35:26;;;;;;;1.70;1.67;;;;;;;;;;5032392;28;20481;-71
2023/07/08 13:37:53;;;;;;;2.33;2.23;;;;;;;;;;5037076;28;20443;-70
2023/07/08 13:40:19;;;;;;;3.00;2.37;;;;;;;;;;5031978;28;20541;-70
2023/07/08 13:42:49;;;;;;;5.60;2.37;;;;;;;;;;5032268;28;20474;-70
2023/07/08 13:45:22;;;;;;;2.10;1.90;;;;;;;;;;5031537;28;20931;-70
2023/07/08 13:47:58;;;;;;;2.37;2.20;;;;;;;;;;5022196;28;20447;-71
2023/07/08 13:50:28;;;;;;;6.33;1.83;;;;;;;;;;5012826;28;20424;-70
2023/07/08 13:52:54;;;;;;;2.23;2.13;;;;;;;;;;5012405;28;20832;-70
2023/07/08 13:55:21;;;;;;;2.20;2.10;;;;;;;;;;5013122;28;20420;-70
2023/07/08 13:57:55;;;;;;;5.83;2.00;;;;;;;;;;5030000;28;20473;-70
2023/07/08 14:00:21;;;;;;;2.07;2.07;;;;;;;;;;5032026;28;20411;-70
2023/07/08 14:02:47;;;;;;;2.93;2.73;;;;;;;;;;5032318;28;20490;-70
2023/07/08 14:05:15;;;;;;;2.57;2.13;;;;;;;;;;5037566;28;20442;-70
2023/07/08 14:07:41;;;;;;;2.33;2.13;;;;;;;;;;5033757;28;20458;-70
2023/07/08 14:10:11;;;;;;;5.17;1.63;;;;;;;;;;5030916;28;20443;-70
2023/07/08 14:12:37;;;;;;;4.33;2.20;;;;;;;;;;5025330;28;20934;-70
2023/07/08 14:15:03;;;;;;;2.13;2.13;;;;;;;;;;5015057;28;20447;-71
2023/07/08 14:17:29;;;;;;;4.73;2.40;;;;;;;;;;5027631;28;20475;-70
2023/07/08 14:19:55;;;;;;;1.63;1.63;;;;;;;;;;5024604;28;20427;-71
2023/07/08 14:22:26;;;;;;;1.93;1.90;;;;;;;;;;5031099;28;20568;-70
2023/07/08 14:24:52;;;;;;;3.90;2.07;;;;;;;;;;5027042;28;20450;-70
2023/07/08 14:27:18;;;;;;;2.73;2.53;;;;;;;;;;5037060;28;20434;-71
2023/07/08 14:29:47;;;;;;;9.10;2.60;;;;;;;;;;5031985;28;20432;-70
2023/07/08 14:32:14;;;;;;;2.50;2.37;;;;;;;;;;5030759;28;20443;-70
2023/07/08 14:34:40;;;;;;;2.60;2.20;;;;;;;;;;5033655;28;20629;-70
2023/07/08 14:37:14;;;;;;;1.97;1.87;;;;;;;;;;5027428;28;20462;-70
2023/07/08 14:39:40;;;;;;;4.40;2.37;;;;;;;;;;5031830;28;20428;-71
2023/07/08 14:42:09;;;;;;;1.83;1.73;;;;;;;;;;5033588;28;20482;-70
2023/07/08 14:44:36;;;;;;;3.73;2.33;;;;;;;;;;5034636;28;20998;-70
2023/07/08 14:47:02;;;;;;;2.80;2.60;;;;;;;;;;5019737;28;20435;-70
2023/07/08 14:49:28;;;;;;;2.40;2.23;;;;;;;;;;5017772;28;20487;-70